Time;durP1;ratioP1;P1;durP2;ratioP2;P2;SDS_P1;SDS_P2;PMS_P1;PMS_P2;Temp;Humidity;BMP_temperature;BMP_pressure;BME280_temperature;BME280_humidity;BME280_pressure;Samples;Min_cycle;Max_cycle;Signal;HPM_P1;HPM_P2
2022/08/05 00:02:04;;;;;;;8.30;3.05;;;;;;;23.26;100.00;100883.84;4946315;29;20055;-72
2022/08/05 00:04:33;;;;;;;9.18;3.38;;;;;;;23.20;100.00;100885.72;4945901;28;20064;-72
2022/08/05 00:07:00;;;;;;;7.10;3.20;;;;;;;23.13;100.00;100902.22;4949165;29;20130;-72
2022/08/05 00:09:46;;;;;;;7.38;3.03;;;;;;;23.11;100.00;100905.53;4951462;28;20435;-72
2022/08/05 00:12:13;;;;;;;7.20;3.13;;;;;;;23.12;100.00;100903.50;4945279;28;20066;-71
2022/08/05 00:14:39;;;;;;;9.50;3.40;;;;;;;23.16;100.00;100913.38;4951934;28;20146;-71
2022/08/05 00:17:06;;;;;;;9.48;3.40;;;;;;;23.18;100.00;100910.06;4945605;28;20062;-72
2022/08/05 00:19:45;;;;;;;8.93;2.97;;;;;;;23.19;100.00;100908.78;4946462;28;20106;-71
2022/08/05 00:22:28;;;;;;;15.93;3.03;;;;;;;23.16;100.00;100913.38;4937574;28;20051;-72
2022/08/05 00:24:56;;;;;;;7.88;3.58;;;;;;;23.16;100.00;100924.66;4951966;28;20047;-71
2022/08/05 00:27:23;;;;;;;8.65;3.10;;;;;;;23.16;100.00;100916.19;4952929;28;21783;-72
2022/08/05 00:30:03;;;;;;;6.35;3.33;;;;;;;23.09;100.00;100912.94;4949702;28;20119;-72
2022/08/05 00:32:29;;;;;;;9.82;3.33;;;;;;;23.05;100.00;100912.31;4948754;28;20051;-72
2022/08/05 00:34:58;;;;;;;8.10;3.42;;;;;;;23.04;100.00;100922.81;4955415;28;20088;-70
2022/08/05 00:37:33;;;;;;;5.70;3.10;;;;;;;23.05;100.00;100912.31;4951063;28;20464;-73
2022/08/05 00:40:20;;;;;;;7.38;3.47;;;;;;;23.01;100.00;100918.13;4955462;28;20244;-72
2022/08/05 00:42:58;;;;;;;13.40;3.10;;;;;;;22.86;100.00;100922.91;4947529;28;20135;-72
2022/08/05 00:45:28;;;;;;;7.93;2.90;;;;;;;22.83;100.00;100915.41;4951528;28;20170;-73
2022/08/05 00:48:17;;;;;;;10.57;3.45;;;;;;;22.84;100.00;100916.19;4951420;28;20049;-72
2022/08/05 00:50:57;;;;;;;10.98;3.42;;;;;;;22.85;100.00;100915.72;4946789;28;20385;-73
2022/08/05 00:53:23;;;;;;;8.98;3.45;;;;;;;22.85;100.00;100912.88;4941737;28;20059;-71
2022/08/05 00:56:10;;;;;;;6.35;2.90;;;;;;;22.88;100.00;100913.97;4945676;29;20050;-72
2022/08/05 00:58:37;;;;;;;10.38;4.07;;;;;;;22.88;100.00;100909.09;4947848;28;20055;-71
2022/08/05 01:01:09;;;;;;;5.53;3.10;;;;;;;22.86;100.00;100917.25;4947814;28;20059;-74
2022/08/05 01:03:39;;;;;;;8.10;3.33;;;;;;;22.83;100.00;100923.06;4946718;28;20048;-72
2022/08/05 01:06:07;;;;;;;7.75;3.67;;;;;;;22.82;100.00;100933.59;4949547;28;20055;-72
2022/08/05 01:08:40;;;;;;;9.13;3.58;;;;;;;22.69;100.00;100936.59;4956230;28;20043;-72
2022/08/05 01:11:14;;;;;;;6.75;2.83;;;;;;;22.59;100.00;100940.72;4948192;28;20563;-70
2022/08/05 01:14:01;;;;;;;9.05;3.38;;;;;;;22.54;100.00;100932.09;4954456;28;20078;-69
2022/08/05 01:17:05;;;;;;;11.30;3.75;;;;;;;22.48;100.00;100931.16;4954109;28;20053;-69
2022/08/05 01:19:38;;;;;;;9.93;3.38;;;;;;;22.40;100.00;100941.19;4912829;28;20046;-72
2022/08/05 01:22:29;;;;;;;6.63;3.42;;;;;;;22.36;100.00;100930.09;4949291;28;20055;-68
2022/08/05 01:25:06;;;;;;;10.85;3.80;;;;;;;22.43;100.00;100943.84;4946074;29;20054;-71
2022/08/05 01:27:41;;;;;;;10.30;3.90;;;;;;;22.45;100.00;100937.75;4947831;28;20626;-72
2022/08/05 01:30:27;;;;;;;10.18;3.88;;;;;;;22.42;100.00;100931.03;4949208;28;20125;-70
2022/08/05 01:33:04;;;;;;;7.38;3.00;;;;;;;22.45;100.00;100929.28;4949098;28;20105;-72
2022/08/05 01:35:38;;;;;;;14.68;4.93;;;;;;;22.43;100.00;100931.78;4947031;28;20058;-71
2022/08/05 01:38:21;;;;;;;7.97;3.47;;;;;;;22.41;100.00;100937.91;4948538;28;20661;-73
2022/08/05 01:40:56;;;;;;;8.20;3.60;;;;;;;22.42;100.00;100944.31;4948344;28;20250;-75
2022/08/05 01:43:26;;;;;;;8.65;3.50;;;;;;;22.43;100.00;100934.59;4949810;28;20051;-71
2022/08/05 01:45:57;;;;;;;10.95;3.83;;;;;;;22.42;100.00;100953.56;4947290;29;20051;-71
2022/08/05 01:48:34;;;;;;;10.82;3.88;;;;;;;22.44;100.00;100955.91;4949671;28;20057;-70
2022/08/05 01:51:03;;;;;;;11.32;3.85;;;;;;;22.45;100.00;100946.19;4945000;28;20402;-72
2022/08/05 01:53:40;;;;;;;8.25;3.83;;;;;;;22.44;100.00;100933.34;4949206;28;20047;-70
2022/08/05 01:56:29;;;;;;;11.57;3.55;;;;;;;22.45;100.00;100927.22;4945202;28;20102;-71
2022/08/05 01:59:18;;;;;;;7.40;3.53;;;;;;;22.41;100.00;100928.69;4948687;28;20058;-73
2022/08/05 02:01:47;;;;;;;10.15;3.70;;;;;;;22.41;100.00;100954.81;4948371;28;20069;-71
2022/08/05 02:04:17;;;;;;;10.43;3.83;;;;;;;22.42;100.00;100961.25;4953279;28;20043;-69
2022/08/05 02:06:43;;;;;;;9.85;3.65;;;;;;;22.38;100.00;100963.44;4947326;28;20069;-75
2022/08/05 02:09:10;;;;;;;10.57;4.00;;;;;;;22.36;100.00;100960.31;4946580;28;20059;-71
2022/08/05 02:12:02;;;;;;;9.20;3.50;;;;;;;22.32;100.00;100974.56;4955579;28;20051;-73
2022/08/05 02:15:02;;;;;;;10.52;4.07;;;;;;;22.25;100.00;100983.34;4957929;28;20110;-73
2022/08/05 02:17:34;;;;;;;10.38;3.70;;;;;;;22.28;100.00;100984.44;4952835;28;20532;-71
2022/08/05 02:20:23;;;;;;;11.10;4.50;;;;;;;22.31;100.00;100998.38;4952802;28;20062;-73
2022/08/05 02:23:01;;;;;;;13.57;4.43;;;;;;;22.26;100.00;101012.31;4950467;28;20137;-73
2022/08/05 02:25:34;;;;;;;12.63;4.47;;;;;;;22.17;100.00;101026.41;4949129;29;20483;-73
2022/08/05 02:28:22;;;;;;;10.77;4.55;;;;;;;22.17;100.00;101032.06;4950080;28;20479;-74
2022/08/05 02:31:04;;;;;;;11.52;4.72;;;;;;;22.14;100.00;101047.09;4952466;28;20051;-74
2022/08/05 02:33:39;;;;;;;12.73;4.93;;;;;;;22.11;100.00;101059.28;4954532;28;20051;-70
2022/08/05 02:36:11;;;;;;;8.63;4.75;;;;;;;22.13;100.00;101054.75;4948829;28;20137;-70
2022/08/05 02:38:45;;;;;;;10.98;4.38;;;;;;;22.14;100.00;101047.09;4954500;28;20058;-71
2022/08/05 02:41:21;;;;;;;12.93;4.97;;;;;;;22.14;100.00;101052.72;4946935;28;20062;-70
2022/08/05 02:43:50;;;;;;;10.90;4.95;;;;;;;22.13;100.00;101051.91;4958125;28;20059;-70
2022/08/05 02:46:32;;;;;;;10.70;4.43;;;;;;;22.13;100.00;101051.13;4958667;28;20047;-71
2022/08/05 02:49:00;;;;;;;15.63;5.15;;;;;;;22.02;100.00;101048.00;4960247;28;20110;-69
2022/08/05 02:51:28;;;;;;;13.00;5.28;;;;;;;22.02;100.00;101034.69;4953586;28;20055;-70
2022/08/05 02:54:20;;;;;;;13.43;5.25;;;;;;;22.03;100.00;101016.53;4951366;28;20058;-73
2022/08/05 02:57:07;;;;;;;15.75;5.82;;;;;;;22.01;100.00;101012.63;4952538;28;20047;-69
2022/08/05 02:59:35;;;;;;;14.73;6.15;;;;;;;21.89;100.00;101019.16;4947845;29;20040;-72
2022/08/05 03:02:20;;;;;;;13.80;6.07;;;;;;;21.80;100.00;101017.13;4947958;28;20495;-71
2022/08/05 03:04:49;;;;;;;15.60;6.18;;;;;;;21.76;100.00;101024.94;4950923;28;20054;-74
2022/08/05 03:07:19;;;;;;;15.73;6.57;;;;;;;21.76;100.00;101022.13;4956941;28;20150;-71
2022/08/05 03:10:07;;;;;;;14.18;6.45;;;;;;;21.66;100.00;101005.63;4951129;29;20066;-69
2022/08/05 03:12:39;;;;;;;14.73;6.38;;;;;;;21.63;100.00;101009.41;4950205;28;20047;-70
2022/08/05 03:15:08;;;;;;;16.17;7.38;;;;;;;21.60;100.00;101018.78;4949860;28;20571;-67
2022/08/05 03:17:37;;;;;;;23.80;8.25;;;;;;;21.52;100.00;101009.84;4957124;28;20089;-74
2022/08/05 03:20:08;;;;;;;18.35;7.75;;;;;;;21.44;100.00;100997.31;4957060;28;20039;-73
2022/08/05 03:22:35;;;;;;;18.95;8.65;;;;;;;21.39;100.00;101000.72;4949928;28;20114;-72
2022/08/05 03:25:12;;;;;;;14.85;7.60;;;;;;;21.32;100.00;100988.97;4953705;28;20129;-75
2022/08/05 03:28:00;;;;;;;14.38;7.20;;;;;;;21.29;100.00;100975.84;4957210;28;20048;-72
2022/08/05 03:30:31;;;;;;;18.15;8.77;;;;;;;21.25;100.00;100969.56;4952846;28;20043;-72
2022/08/05 03:33:00;;;;;;;22.80;8.30;;;;;;;21.21;100.00;100961.28;4946734;29;20057;-72
2022/08/05 03:35:27;;;;;;;20.75;8.20;;;;;;;21.20;100.00;100956.91;4959560;28;20526;-68
2022/08/05 03:38:01;;;;;;;17.63;7.50;;;;;;;21.16;100.00;100933.72;4948199;28;20050;-73
2022/08/05 03:40:28;;;;;;;15.68;6.72;;;;;;;21.12;100.00;100932.34;4948078;28;20146;-72
2022/08/05 03:42:58;;;;;;;17.70;6.82;;;;;;;21.02;100.00;100909.00;4952385;28;20150;-73
2022/08/05 03:45:41;;;;;;;20.45;7.97;;;;;;;21.01;100.00;100909.47;4952669;28;20519;-70
2022/08/05 03:48:26;;;;;;;19.38;8.02;;;;;;;20.98;100.00;100899.91;4951392;28;20098;-71
2022/08/05 03:51:02;;;;;;;18.98;7.97;;;;;;;20.92;100.00;100889.72;4947582;28;20058;-71
2022/08/05 03:54:03;;;;;;;16.00;7.53;;;;;;;20.84;100.00;100877.97;4950512;28;20048;-72
2022/08/05 03:56:49;;;;;;;18.63;8.68;;;;;;;20.75;100.00;100883.56;4945068;28;20051;-72
2022/08/05 03:59:32;;;;;;;19.17;7.65;;;;;;;20.71;100.00;100896.19;4952339;28;20043;-72
2022/08/05 04:02:15;;;;;;;20.00;8.43;;;;;;;20.71;100.00;100904.63;4947658;28;20062;-74
2022/08/05 04:05:04;;;;;;;18.35;8.10;;;;;;;20.74;100.00;100917.75;4947838;28;20134;-72
2022/08/05 04:07:37;;;;;;;19.80;8.57;;;;;;;20.72;100.00;100937.13;4949241;28;20043;-72
2022/08/05 04:10:26;;;;;;;22.52;9.52;;;;;;;20.70;100.00;100946.03;4949272;28;20069;-72
2022/08/05 04:12:56;;;;;;;20.80;9.45;;;;;;;20.65;100.00;100951.47;4954840;28;20050;-74
2022/08/05 04:15:25;;;;;;;20.65;9.52;;;;;;;20.54;100.00;100960.31;4949389;28;20047;-72
2022/08/05 04:18:02;;;;;;;19.98;9.20;;;;;;;20.51;100.00;100971.69;4948331;28;20102;-73
2022/08/05 04:20:32;;;;;;;17.30;8.93;;;;;;;20.32;100.00;100970.78;4947437;29;20480;-73
2022/08/05 04:22:59;;;;;;;17.42;8.20;;;;;;;20.21;100.00;100992.84;4951019;28;20074;-72
2022/08/05 04:25:26;;;;;;;18.95;9.32;;;;;;;20.24;100.00;101011.59;4945229;28;20051;-72
2022/08/05 04:28:13;;;;;;;19.48;10.55;;;;;;;20.29;100.00;101013.84;4952747;28;20051;-73
2022/08/05 04:30:40;;;;;;;23.75;10.95;;;;;;;20.39;100.00;101016.25;4946090;28;20087;-73
2022/08/05 04:33:08;;;;;;;22.05;10.90;;;;;;;20.43;100.00;101016.91;4950581;28;20055;-73
2022/08/05 04:35:35;;;;;;;22.50;11.00;;;;;;;20.44;100.00;101020.50;4959752;28;20053;-73
2022/08/05 04:38:22;;;;;;;21.33;11.07;;;;;;;20.48;100.00;101018.34;4957857;28;20046;-74
2022/08/05 04:41:05;;;;;;;22.52;11.45;;;;;;;20.43;100.00;101016.91;4949047;28;20043;-72
2022/08/05 04:43:35;;;;;;;26.00;13.15;;;;;;;20.38;100.00;101007.50;4951593;28;20081;-73
2022/08/05 04:46:03;;;;;;;30.60;14.85;;;;;;;20.38;100.00;100982.22;4949240;28;20083;-75
2022/08/05 04:48:30;;;;;;;27.98;15.13;;;;;;;20.49;100.00;100976.97;4949802;28;20051;-76
2022/08/05 04:50:58;;;;;;;27.30;14.35;;;;;;;20.56;100.00;100985.16;4948522;28;20542;-74
2022/08/05 04:53:36;;;;;;;26.15;14.63;;;;;;;20.63;100.00;100984.88;4948008;28;20106;-74
2022/08/05 04:56:08;;;;;;;32.10;15.32;;;;;;;20.69;100.00;101014.75;4951144;28;20051;-73
2022/08/05 04:58:55;;;;;;;27.85;16.20;;;;;;;20.64;100.00;101014.53;4954023;28;20065;-73
2022/08/05 05:01:24;;;;;;;29.92;15.50;;;;;;;20.64;100.00;101014.53;4941697;28;20135;-73
2022/08/05 05:04:10;;;;;;;27.02;14.68;;;;;;;20.68;100.00;100999.13;4950529;28;20055;-72
2022/08/05 05:06:37;;;;;;;23.13;13.13;;;;;;;20.70;100.00;101004.28;4949325;28;20130;-72
2022/08/05 05:09:11;;;;;;;25.02;13.82;;;;;;;20.76;100.00;100999.63;4949035;29;20182;-73
2022/08/05 05:11:43;;;;;;;32.33;14.75;;;;;;;20.78;100.00;100994.34;4948561;28;20055;-75
2022/08/05 05:14:23;;;;;;;25.48;14.98;;;;;;;20.76;100.00;100989.19;4949520;29;20058;-75
2022/08/05 05:16:57;;;;;;;27.13;15.98;;;;;;;20.74;100.00;100993.69;4946823;28;20102;-74
2022/08/05 05:19:23;;;;;;;28.85;17.05;;;;;;;20.80;100.00;100989.81;4948617;29;20054;-72
2022/08/05 05:22:02;;;;;;;28.73;15.93;;;;;;;20.82;100.00;100986.56;4944459;29;20086;-71
2022/08/05 05:24:51;;;;;;;30.25;17.88;;;;;;;20.83;100.00;100979.69;4943958;29;20070;-72
2022/08/05 05:27:28;;;;;;;30.40;17.48;;;;;;;20.82;100.00;100992.94;4947539;28;20059;-72
2022/08/05 05:30:13;;;;;;;28.67;16.08;;;;;;;20.77;100.00;100965.44;4946196;28;20801;-72
2022/08/05 05:32:55;;;;;;;29.90;17.67;;;;;;;20.80;100.00;100960.91;4951176;28;20148;-74
2022/08/05 05:35:30;;;;;;;27.10;16.23;;;;;;;20.77;100.00;100959.00;4953656;28;20043;-68
2022/08/05 05:38:07;;;;;;;26.35;14.60;;;;;;;20.77;100.00;100976.69;4952970;28;20073;-69
2022/08/05 05:40:40;;;;;;;27.90;13.52;;;;;;;20.73;100.00;100981.66;4947996;28;20039;-69
2022/08/05 05:43:21;;;;;;;36.83;16.48;;;;;;;20.70;100.00;100978.97;4948236;28;20134;-69
2022/08/05 05:46:08;;;;;;;30.83;15.75;;;;;;;20.76;100.00;100991.19;4946642;28;20062;-71
2022/08/05 05:48:44;;;;;;;26.90;15.02;;;;;;;20.77;100.00;100998.38;4948522;28;20053;-70
2022/08/05 05:51:23;;;;;;;31.95;15.77;;;;;;;20.76;100.00;101003.25;4956741;28;20703;-70
2022/08/05 05:53:52;;;;;;;30.70;16.17;;;;;;;20.80;100.00;101000.28;4945211;28;20122;-70
2022/08/05 05:56:29;;;;;;;26.63;15.15;;;;;;;20.80;100.00;101006.69;4946555;28;20069;-69
2022/08/05 05:59:01;;;;;;;29.30;16.27;;;;;;;20.75;100.00;101009.31;4949180;28;20043;-68
2022/08/05 06:01:32;;;;;;;29.25;15.40;;;;;;;20.73;100.00;101021.03;4946153;28;20047;-69
2022/08/05 06:04:11;;;;;;;26.20;16.05;;;;;;;20.63;100.00;101033.47;4949116;28;20527;-69
2022/08/05 06:06:41;;;;;;;27.42;15.23;;;;;;;20.62;100.00;101028.28;4943575;28;20055;-75
2022/08/05 06:09:12;;;;;;;24.60;12.90;;;;;;;20.64;100.00;101022.97;4948487;28;20050;-75
2022/08/05 06:11:53;;;;;;;24.13;13.55;;;;;;;20.72;100.00;101029.94;4947831;28;20086;-74
2022/08/05 06:14:27;;;;;;;25.90;12.88;;;;;;;20.76;100.00;101027.75;4949263;28;20051;-74
2022/08/05 06:16:54;;;;;;;24.85;12.07;;;;;;;20.75;100.00;101031.81;4947061;28;20043;-74
2022/08/05 06:19:22;;;;;;;23.52;13.27;;;;;;;20.75;100.00;101043.06;4950018;28;20071;-74
2022/08/05 06:22:02;;;;;;;23.55;12.27;;;;;;;20.77;100.00;101034.94;4944799;29;20051;-70
2022/08/05 06:24:29;;;;;;;24.77;11.65;;;;;;;20.71;100.00;101039.59;4949410;28;20487;-72
2022/08/05 06:26:59;;;;;;;23.45;12.48;;;;;;;20.72;100.00;101036.31;4949410;28;20065;-70
2022/08/05 06:29:26;;;;;;;23.50;11.35;;;;;;;20.77;100.00;101046.97;4946907;29;20058;-69
2022/08/05 06:32:13;;;;;;;26.65;12.73;;;;;;;20.82;100.00;101065.31;4947452;28;20047;-69
2022/08/05 06:34:54;;;;;;;25.25;12.10;;;;;;;20.79;100.00;101064.16;4948427;28;20114;-69
2022/08/05 06:37:25;;;;;;;23.10;11.95;;;;;;;20.80;100.00;101079.03;4951547;28;20609;-69
2022/08/05 06:40:12;;;;;;;22.75;11.48;;;;;;;20.66;100.00;101080.34;4947930;28;20389;-69
2022/08/05 06:42:44;;;;;;;26.08;12.45;;;;;;;20.59;100.00;101074.19;4944333;28;20639;-71
2022/08/05 06:45:11;;;;;;;28.35;11.57;;;;;;;20.60;100.00;101078.56;4945727;28;20802;-70
2022/08/05 06:47:47;;;;;;;21.92;10.35;;;;;;;20.52;100.00;101085.69;4949547;28;20149;-69
2022/08/05 06:50:36;;;;;;;24.23;11.68;;;;;;;20.57;100.00;101085.09;4947785;28;20048;-69
2022/08/05 06:53:02;;;;;;;20.00;11.30;;;;;;;20.53;100.00;101087.25;4945125;28;20051;-70
2022/08/05 06:55:48;;;;;;;24.77;12.40;;;;;;;20.51;100.00;101095.38;4944423;28;20047;-73
2022/08/05 06:58:14;;;;;;;24.83;14.13;;;;;;;20.45;100.00;101094.38;4949791;28;20039;-69
2022/08/05 07:01:01;;;;;;;24.73;13.55;;;;;;;20.48;100.00;101091.44;4946694;29;20044;-69
2022/08/05 07:03:29;;;;;;;26.20;13.43;;;;;;;20.48;100.00;101085.03;4950529;28;20063;-71
2022/08/05 07:06:03;;;;;;;30.05;16.38;;;;;;;20.48;100.00;101090.66;4952406;28;20047;-71
2022/08/05 07:08:43;;;;;;;25.83;13.95;;;;;;;20.48;100.00;101093.47;4951703;28;20043;-68
2022/08/05 07:11:17;;;;;;;23.98;13.57;;;;;;;20.41;100.00;101102.94;4956682;28;20047;-69
2022/08/05 07:16:59;;;;;;;21.23;9.38;;;;;;;20.41;100.00;101135.88;4889112;28;20047;-68
2022/08/05 07:19:46;;;;;;;23.38;10.48;;;;;;;20.35;100.00;101121.59;4952446;28;20043;-68
2022/08/05 07:22:33;;;;;;;21.10;9.27;;;;;;;20.42;100.00;101109.34;4949893;28;20051;-70
2022/08/05 07:25:00;;;;;;;14.55;6.38;;;;;;;20.43;100.00;101111.69;4948002;28;20122;-69
2022/08/05 07:27:53;;;;;;;20.15;8.73;;;;;;;20.47;100.00;101120.78;4947968;28;20050;-73
2022/08/05 07:30:34;;;;;;;19.92;8.35;;;;;;;20.48;100.00;101127.97;4945135;28;20047;-74
2022/08/05 07:33:08;;;;;;;23.77;8.32;;;;;;;20.54;100.00;101128.97;4948814;28;20070;-74
2022/08/05 07:35:41;;;;;;;16.85;7.90;;;;;;;20.56;100.00;101128.50;4951528;28;20113;-76
2022/08/05 07:38:28;;;;;;;16.45;7.78;;;;;;;20.54;100.00;101117.72;4949899;28;20058;-74
2022/08/05 07:41:09;;;;;;;22.90;7.57;;;;;;;20.53;100.00;101116.16;4954695;28;20488;-71
2022/08/05 07:43:57;;;;;;;16.40;6.60;;;;;;;20.51;100.00;101126.31;4960339;28;20051;-74
2022/08/05 07:46:28;;;;;;;15.80;7.15;;;;;;;20.51;100.00;101129.09;4956022;28;20051;-74
2022/08/05 07:48:59;;;;;;;17.70;6.80;;;;;;;20.52;100.00;101125.06;4948161;28;20138;-69
2022/08/05 07:51:32;;;;;;;;;;;;;;;20.49;100.00;101131.56;4953172;28;20491;-70
2022/08/05 07:54:06;;;;;;;17.88;6.82;;;;;;;20.48;100.00;101136.41;4950415;28;19918;-70
2022/08/05 07:56:36;;;;;;;16.35;7.15;;;;;;;20.48;100.00;101135.63;4947174;28;20134;-69
2022/08/05 07:59:22;;;;;;;19.83;7.03;;;;;;;20.42;100.00;101145.88;4954405;28;20411;-69
2022/08/05 08:02:09;;;;;;;17.70;7.22;;;;;;;20.41;100.00;101161.19;4953228;28;20349;-70
2022/08/05 08:04:42;;;;;;;25.23;9.00;;;;;;;20.34;100.00;101170.63;4951732;28;20475;-69
2022/08/05 08:07:10;;;;;;;18.65;6.70;;;;;;;20.32;100.00;101173.88;4951117;28;20626;-69
2022/08/05 08:09:37;;;;;;;19.48;6.70;;;;;;;20.32;100.00;101176.69;4958697;28;20055;-67
2022/08/05 08:12:04;;;;;;;15.75;6.10;;;;;;;20.32;100.00;101187.94;4952440;28;20129;-69
2022/08/05 08:14:46;;;;;;;17.88;5.63;;;;;;;20.29;100.00;101188.84;4951693;28;20103;-68
2022/08/05 08:17:13;;;;;;;16.75;6.30;;;;;;;20.27;100.00;101182.09;4951262;28;20050;-69
2022/08/05 08:19:47;;;;;;;18.60;6.40;;;;;;;20.28;100.00;101173.22;4950593;28;20054;-69
2022/08/05 08:22:33;;;;;;;15.45;5.47;;;;;;;20.32;100.00;101173.88;4945134;28;20059;-67
2022/08/05 08:25:00;;;;;;;13.32;5.68;;;;;;;20.32;100.00;101182.31;4951258;28;20043;-69
2022/08/05 08:27:32;;;;;;;15.57;6.53;;;;;;;20.34;100.00;101182.66;4951530;28;20078;-69
2022/08/05 08:30:11;;;;;;;13.48;6.22;;;;;;;20.31;100.00;101191.19;4955399;28;20063;-69
2022/08/05 08:32:58;;;;;;;15.57;6.25;;;;;;;20.23;100.00;101199.09;4950891;28;20047;-67
2022/08/05 08:35:30;;;;;;;17.52;5.72;;;;;;;20.16;100.00;101210.56;4949795;28;20039;-68
2022/08/05 08:38:06;;;;;;;11.98;5.57;;;;;;;20.07;100.00;101224.47;4955143;28;20529;-67
2022/08/05 08:40:34;;;;;;;20.17;7.60;;;;;;;20.16;100.00;101223.81;4954988;28;20089;-69
2022/08/05 08:43:03;;;;;;;17.58;6.10;;;;;;;20.18;100.00;101222.13;4947123;28;20055;-72
2022/08/05 08:45:52;;;;;;;14.02;6.03;;;;;;;20.20;100.00;101222.47;4945175;28;20047;-69
2022/08/05 08:48:20;;;;;;;15.50;6.18;;;;;;;20.18;100.00;101218.53;4946996;28;20162;-70
2022/08/05 08:51:06;;;;;;;13.48;5.88;;;;;;;20.13;100.00;101228.31;4945609;28;20050;-68
2022/08/05 08:53:54;;;;;;;13.70;5.13;;;;;;;20.09;100.00;101238.06;4946623;28;20055;-70
2022/08/05 08:56:22;;;;;;;15.25;6.15;;;;;;;20.06;100.00;101231.34;4948089;28;20047;-69
2022/08/05 08:58:52;;;;;;;16.38;5.13;;;;;;;20.07;100.00;101237.72;4946839;28;20427;-70
2022/08/05 09:01:19;;;;;;;20.20;5.88;;;;;;;20.10;100.00;101243.25;4946051;28;20496;-67
2022/08/05 09:03:52;;;;;;;11.60;4.90;;;;;;;20.02;100.00;101243.91;4947640;28;20846;-67
2022/08/05 09:06:28;;;;;;;14.77;5.95;;;;;;;20.09;100.00;101247.25;4949937;28;20054;-67
2022/08/05 09:09:00;;;;;;;17.38;4.68;;;;;;;20.08;100.00;101247.75;4948278;28;20051;-70
2022/08/05 09:11:28;;;;;;;19.00;6.15;;;;;;;20.17;100.00;101251.47;4947166;28;20468;-73
2022/08/05 09:14:15;;;;;;;11.32;5.00;;;;;;;20.21;100.00;101256.97;4946855;28;20051;-69
2022/08/05 09:17:05;;;;;;;14.40;4.63;;;;;;;20.26;100.00;101262.03;4941846;28;20059;-70
2022/08/05 09:19:35;;;;;;;11.98;4.90;;;;;;;20.30;100.00;101259.88;4941600;28;20049;-70
2022/08/05 09:22:22;;;;;;;13.32;4.50;;;;;;;20.38;100.00;101254.84;4948071;28;20047;-68
2022/08/05 09:25:00;;;;;;;14.50;4.80;;;;;;;20.42;100.00;101257.06;4949588;28;20051;-67
2022/08/05 09:27:39;;;;;;;10.85;4.82;;;;;;;20.48;100.00;101256.50;4941303;28;20066;-66
2022/08/05 09:30:26;;;;;;;14.15;5.47;;;;;;;20.53;100.00;101258.72;4944491;28;20055;-66
2022/08/05 09:33:00;;;;;;;15.77;5.53;;;;;;;20.49;100.00;101247.63;4941705;28;20055;-67
2022/08/05 09:35:27;;;;;;;14.10;5.43;;;;;;;20.51;100.00;101261.22;4943291;28;20071;-69
2022/08/05 09:37:57;;;;;;;15.40;5.32;;;;;;;20.45;100.00;101251.78;4944729;28;20122;-71
2022/08/05 09:40:43;;;;;;;12.90;4.88;;;;;;;20.42;100.00;101271.13;4941304;28;20164;-68
2022/08/05 09:43:29;;;;;;;14.40;5.50;;;;;;;20.43;100.00;101272.69;4945366;28;20062;-70
2022/08/05 09:46:31;;;;;;;14.57;5.20;;;;;;;20.49;100.00;101277.75;4947476;29;20066;-67
2022/08/05 09:49:05;;;;;;;12.40;4.97;;;;;;;20.55;100.00;101279.53;4949101;28;20051;-68
2022/08/05 09:51:45;;;;;;;16.48;5.60;;;;;;;20.54;100.00;101292.03;4945894;28;20583;-71
2022/08/05 09:54:16;;;;;;;14.13;5.20;;;;;;;20.54;100.00;101294.84;4947881;28;20085;-67
2022/08/05 09:56:56;;;;;;;13.95;4.40;;;;;;;20.51;100.00;101309.78;4948210;28;20063;-67
2022/08/05 09:59:26;;;;;;;15.82;5.07;;;;;;;20.49;100.00;101305.88;4948974;28;20051;-68
2022/08/05 10:01:53;;;;;;;13.38;5.15;;;;;;;20.42;100.00;101312.50;4943754;29;20504;-68
2022/08/05 10:04:34;;;;;;;14.48;5.43;;;;;;;20.48;100.00;101315.53;4949262;28;20054;-71
2022/08/05 10:07:01;;;;;;;12.88;4.97;;;;;;;20.56;100.00;101326.09;4949279;28;20090;-66
2022/08/05 10:09:55;;;;;;;10.00;4.57;;;;;;;20.56;100.00;101319.69;4945635;29;20047;-70
2022/08/05 10:12:49;;;;;;;11.95;4.60;;;;;;;20.72;100.00;101330.81;4946362;28;20058;-68
2022/08/05 10:15:24;;;;;;;12.48;5.20;;;;;;;20.80;100.00;101332.13;4943816;29;20052;-69
2022/08/05 10:18:10;;;;;;;10.10;4.38;;;;;;;20.90;100.00;101339.44;4947343;28;20047;-68
2022/08/05 10:20:40;;;;;;;9.30;3.88;;;;;;;21.00;100.00;101344.75;4938157;28;20737;-66
2022/08/05 10:23:10;;;;;;;12.77;4.40;;;;;;;21.11;100.00;101353.59;4926493;29;20150;-68
2022/08/05 10:25:58;;;;;;;9.63;4.03;;;;;;;21.25;100.00;101353.09;4929876;28;20055;-70
2022/08/05 10:28:26;;;;;;;7.93;4.03;;;;;;;21.47;100.00;101356.75;4931009;28;20930;-73
2022/08/05 10:30:57;;;;;;;9.52;4.25;;;;;;;21.74;100.00;101361.84;4930290;28;20058;-69
2022/08/05 10:33:44;;;;;;;12.45;5.22;;;;;;;22.09;100.00;101360.50;4931326;29;20070;-70
2022/08/05 10:36:17;;;;;;;10.88;5.47;;;;;;;22.32;100.00;101360.00;4930974;29;20055;-69
2022/08/05 10:38:52;;;;;;;18.35;6.00;;;;;;;22.49;100.00;101369.81;4928583;29;20055;-72
2022/08/05 10:41:29;;;;;;;15.05;5.95;;;;;;;22.67;100.00;101370.69;4935504;28;20051;-71
2022/08/05 10:44:17;;;;;;;14.18;5.05;;;;;;;22.98;100.00;101369.84;4934715;29;20055;-71
2022/08/05 10:46:52;;;;;;;13.18;5.57;;;;;;;23.32;100.00;101373.19;4937336;28;20161;-69
2022/08/05 10:49:22;;;;;;;10.57;4.82;;;;;;;23.53;100.00;101379.97;4930747;28;20078;-70
2022/08/05 10:51:58;;;;;;;11.75;4.97;;;;;;;23.72;100.00;101382.31;4926402;28;20369;-72
2022/08/05 10:54:46;;;;;;;;;;;;;;;23.92;100.00;101376.16;4932433;29;20059;-71
2022/08/05 10:57:26;;;;;;;11.65;4.50;;;;;;;24.04;100.00;101390.19;4930949;29;20864;-73
2022/08/05 11:00:17;;;;;;;7.85;4.07;;;;;;;24.12;100.00;101387.78;4932299;28;20189;-69
2022/08/05 11:03:15;;;;;;;9.25;4.05;;;;;;;24.43;99.56;101397.59;4931910;29;20138;-71
2022/08/05 11:06:07;;;;;;;9.48;3.90;;;;;;;24.58;91.84;101400.53;4916991;29;20146;-71
2022/08/05 11:09:17;;;;;;;9.90;4.55;;;;;;;24.48;90.58;101402.63;4929382;29;20057;-70
2022/08/05 11:11:51;;;;;;;12.57;4.30;;;;;;;24.89;96.17;101401.84;4931220;29;20051;-70
2022/08/05 11:14:38;;;;;;;10.30;3.78;;;;;;;25.17;91.39;101396.03;4936656;28;20149;-71
2022/08/05 11:17:31;;;;;;;9.98;4.60;;;;;;;25.55;91.45;101394.06;4934917;29;20051;-72
2022/08/05 11:20:46;;;;;;;8.32;4.40;;;;;;;25.64;83.51;101396.81;4928756;29;20749;-68
2022/08/05 11:23:27;;;;;;;11.40;5.35;;;;;;;25.10;82.63;101397.16;4928309;29;20090;-71
2022/08/05 11:26:17;;;;;;;14.15;6.53;;;;;;;25.32;85.66;101402.56;4931217;29;20051;-75
2022/08/05 11:29:00;;;;;;;10.97;5.97;;;;;;;25.58;82.96;101397.97;4929433;29;20055;-73
2022/08/05 11:31:38;;;;;;;13.85;5.95;;;;;;;25.74;83.64;101400.38;4926584;28;20295;-72
2022/08/05 11:34:36;;;;;;;12.02;5.63;;;;;;;25.78;82.49;101389.63;4930406;28;20833;-72
2022/08/05 11:37:03;;;;;;;11.88;5.60;;;;;;;25.81;81.51;101397.91;4931323;28;20092;-70
2022/08/05 11:39:50;;;;;;;10.52;5.45;;;;;;;25.89;82.22;101399.13;4928706;29;20063;-68
2022/08/05 11:42:32;;;;;;;12.95;6.03;;;;;;;25.91;80.32;101390.13;4931710;29;20055;-69
2022/08/05 11:45:06;;;;;;;12.90;6.65;;;;;;;26.11;78.46;101396.72;4932871;28;20476;-69
2022/08/05 11:47:53;;;;;;;10.57;6.10;;;;;;;26.36;78.69;101403.84;4936708;28;20051;-69
2022/08/05 11:50:21;;;;;;;14.82;7.30;;;;;;;26.69;77.12;101408.06;4934611;29;20066;-71
2022/08/05 11:52:48;;;;;;;20.83;9.27;;;;;;;26.77;74.78;101408.44;4934858;28;20053;-68
2022/08/05 11:55:19;;;;;;;14.02;7.45;;;;;;;26.74;76.00;101404.53;4932410;28;20062;-67
2022/08/05 11:57:46;;;;;;;11.13;7.35;;;;;;;26.77;73.50;101402.75;4930691;28;20051;-69